Terminal Aerodrome Forecast
Issued by NWS Jackson, KY

Home | Current Version | Previous Version | Text Only | Print | Product List | Glossary Off
Versions: 1 2 3 4 5 6 7 8 9 10 11 12 13 14 15 16 17

000
FTUS43 KJKL 012331
TAFJKL
TAF
KJKL 012331Z 0200/0224 VRB03KT P6SM SCT250
     FM021200 18007KT P6SM BKN100
     FM021500 18009G18KT P6SM VCSH BKN050=

USA.gov is the U.S. government's official web portal to all federal, state and local government web resources and services.